Terminal Aerodrome Forecast
Issued by NWS Sterling, VA

Current Version | Previous Version | Graphics & Text | Print | Product List | Glossary On
Versions: 1 2 3 4 5 6 7 8 9 10 11 12
000
FTUS41 KLWX 181100
TAFMRB
TAF
KMRB 181122Z 1812/1912 00000KT P6SM BKN250
     FM181700 14007KT P6SM BKN250
     FM190600 VRB03KT P6SM BKN250
     FM191100 36008KT P6SM FEW250=

USA.gov is the U.S. government's official web portal to all federal, state and local government web resources and services.